Time;durP1;ratioP1;P1;durP2;ratioP2;P2;SDS_P1;SDS_P2;PMS_P1;PMS_P2;Temp;Humidity;BMP_temperature;BMP_pressure;BME280_temperature;BME280_humidity;BME280_pressure;Samples;Min_cycle;Max_cycle;Signal;HPM_P1;HPM_P2
2023/10/01 00:00:26;;;;;;;20.92;6.30;;;;;;;13.47;65.26;97650.09;6215339;23;20024;-81
2023/10/01 00:02:56;;;;;;;13.45;6.15;;;;;;;13.47;65.16;97660.59;6215822;23;20023;-81
2023/10/01 00:05:26;;;;;;;13.15;6.32;;;;;;;13.45;65.26;97657.31;6215269;23;20024;-80
2023/10/01 00:07:53;;;;;;;9.80;5.88;;;;;;;13.39;65.27;97656.19;6216141;23;20092;-80
2023/10/01 00:10:22;;;;;;;10.45;5.28;;;;;;;13.44;65.67;97650.44;6215992;23;20025;-80
2023/10/01 00:12:53;;;;;;;8.82;5.72;;;;;;;13.49;65.21;97653.38;6215362;23;20060;-81
2023/10/01 00:15:24;;;;;;;12.82;6.35;;;;;;;13.51;65.23;97659.25;6215763;23;20025;-81
2023/10/01 00:17:52;;;;;;;10.52;5.85;;;;;;;13.56;65.16;97667.41;6215775;23;20075;-81
2023/10/01 00:20:23;;;;;;;10.93;6.25;;;;;;;13.59;65.11;97659.16;6215071;23;20027;-81
2023/10/01 00:22:54;;;;;;;12.32;6.05;;;;;;;13.61;64.85;97661.63;6215700;23;20029;-81
2023/10/01 00:25:23;;;;;;;13.07;5.88;;;;;;;13.60;64.69;97660.00;6215144;23;20535;-81
2023/10/01 00:27:51;;;;;;;12.55;6.53;;;;;;;13.56;64.72;97653.47;6215622;23;20017;-81
2023/10/01 00:30:19;;;;;;;10.00;5.82;;;;;;;13.48;64.72;97656.16;6214974;23;20020;-81
2023/10/01 00:32:47;;;;;;;11.10;5.43;;;;;;;13.41;64.94;97660.47;6215519;23;20362;-81
2023/10/01 00:35:15;;;;;;;12.02;6.13;;;;;;;13.35;65.06;97646.22;6214889;23;20024;-80
2023/10/01 00:37:44;;;;;;;9.82;5.15;;;;;;;13.34;65.45;97647.25;6215501;23;20024;-81
2023/10/01 00:40:13;;;;;;;11.30;5.80;;;;;;;13.31;65.20;97640.50;6215366;23;20024;-81
2023/10/01 00:42:41;;;;;;;11.27;5.95;;;;;;;13.29;65.25;97641.69;6229252;23;20060;-80
2023/10/01 00:45:13;;;;;;;10.80;6.47;;;;;;;13.27;65.34;97644.47;6237803;23;20486;-80
2023/10/01 00:47:42;;;;;;;13.05;6.63;;;;;;;13.23;65.40;97642.34;6237294;23;20080;-80
2023/10/01 00:50:12;;;;;;;12.10;6.50;;;;;;;13.17;65.69;97639.44;6218085;23;20528;-81
2023/10/01 00:52:41;;;;;;;14.65;6.85;;;;;;;13.15;65.63;97636.16;6216951;23;20083;-81
2023/10/01 00:55:13;;;;;;;10.30;6.07;;;;;;;13.14;65.91;97631.94;6215270;23;20079;-81
2023/10/01 00:57:41;;;;;;;12.40;6.28;;;;;;;13.11;65.76;97632.25;6216035;23;20101;-80
2023/10/01 01:00:16;;;;;;;10.40;5.75;;;;;;;13.09;65.76;97629.00;6215983;23;20367;-81
2023/10/01 01:02:56;;;;;;;10.50;5.68;;;;;;;13.09;65.92;97629.00;6215615;23;20028;-80
2023/10/01 01:05:34;;;;;;;10.05;5.85;;;;;;;13.06;65.74;97634.59;6215188;23;20021;-81
2023/10/01 01:08:08;;;;;;;12.18;5.55;;;;;;;13.07;65.95;97628.34;6215337;23;20103;-81
2023/10/01 01:10:42;;;;;;;12.60;6.05;;;;;;;13.08;65.73;97630.00;6215356;23;20020;-81
2023/10/01 01:13:16;;;;;;;10.18;4.95;;;;;;;13.07;66.00;97625.72;6215255;23;20285;-81
2023/10/01 01:15:46;;;;;;;11.68;6.25;;;;;;;13.08;65.73;97627.38;6215218;23;20095;-81
2023/10/01 01:18:14;;;;;;;10.43;5.63;;;;;;;13.07;65.52;97633.59;6215257;23;20024;-81
2023/10/01 01:20:45;;;;;;;14.05;6.00;;;;;;;13.06;65.72;97629.34;6214944;23;20021;-81
2023/10/01 01:23:18;;;;;;;14.05;6.45;;;;;;;13.09;65.97;97636.03;6214657;23;20017;-80
2023/10/01 01:25:46;;;;;;;12.35;6.05;;;;;;;13.11;65.69;97645.34;6214892;23;20343;-80
2023/10/01 01:28:15;;;;;;;13.32;6.00;;;;;;;13.14;65.65;97641.56;6215283;23;20040;-81
2023/10/01 01:30:47;;;;;;;13.50;6.50;;;;;;;13.15;65.64;97636.16;6215021;23;20457;-80
2023/10/01 01:33:20;;;;;;;13.13;6.30;;;;;;;13.12;65.64;97636.53;6215001;23;20021;-81
2023/10/01 01:35:49;;;;;;;11.45;6.20;;;;;;;13.11;65.58;97636.69;6214998;23;20021;-80
2023/10/01 01:38:18;;;;;;;10.85;5.85;;;;;;;13.10;65.86;97641.13;6214928;23;20021;-80
2023/10/01 01:40:47;;;;;;;13.15;5.60;;;;;;;13.10;65.66;97643.72;6214978;23;20021;-80
2023/10/01 01:43:21;;;;;;;12.20;6.90;;;;;;;13.09;65.64;97644.69;6214739;23;20341;-81
2023/10/01 01:45:54;;;;;;;11.35;6.00;;;;;;;13.08;65.81;97640.47;6214678;23;20032;-81
2023/10/01 01:48:26;;;;;;;11.30;5.10;;;;;;;13.15;65.65;97635.34;6215095;23;20021;-80
2023/10/01 01:50:54;;;;;;;11.38;5.63;;;;;;;13.20;65.50;97644.31;6214816;23;20048;-81
2023/10/01 01:53:26;;;;;;;11.55;5.65;;;;;;;13.27;65.16;97646.25;6214734;23;20024;-81
2023/10/01 01:55:55;;;;;;;11.37;5.60;;;;;;;13.30;65.05;97632.84;6214997;23;20028;-80
2023/10/01 01:58:25;;;;;;;11.13;5.90;;;;;;;13.33;64.76;97635.91;6215098;23;20258;-81
2023/10/01 02:01:08;;;;;;;13.30;6.80;;;;;;;13.30;64.76;97632.84;6214971;23;20393;-80
2023/10/01 02:03:38;;;;;;;11.85;6.65;;;;;;;13.25;64.74;97622.03;6214828;23;20021;-80
2023/10/01 02:06:07;;;;;;;11.55;6.10;;;;;;;13.21;64.91;97626.81;6215016;23;20024;-81
2023/10/01 02:08:47;;;;;;;13.05;6.13;;;;;;;13.20;65.25;97633.84;6214432;23;20067;-80
2023/10/01 02:11:15;;;;;;;13.75;6.43;;;;;;;13.19;65.08;97626.97;6214793;23;20020;-80
2023/10/01 02:13:45;;;;;;;12.38;6.65;;;;;;;13.15;64.82;97627.50;6214478;23;20397;-81
2023/10/01 02:16:36;;;;;;;12.90;5.85;;;;;;;13.10;65.00;97628.00;6214973;23;20028;-81
2023/10/01 02:19:14;;;;;;;11.80;6.25;;;;;;;13.04;65.10;97638.38;6214706;23;20025;-80
2023/10/01 02:21:43;;;;;;;11.63;6.72;;;;;;;12.96;65.25;97637.41;6214847;23;20024;-81
2023/10/01 02:24:19;;;;;;;12.88;6.82;;;;;;;12.94;65.58;97628.94;6214509;23;20154;-81
2023/10/01 02:26:47;;;;;;;10.80;6.18;;;;;;;12.94;65.53;97622.84;6215450;23;20024;-81
2023/10/01 02:29:16;;;;;;;10.18;5.88;;;;;;;12.99;65.48;97620.56;6215473;23;20025;-81
2023/10/01 02:31:49;;;;;;;11.95;6.07;;;;;;;13.01;65.39;97620.34;6216288;23;20402;-81
2023/10/01 02:34:17;;;;;;;12.95;6.13;;;;;;;12.99;65.42;97617.94;6215986;23;20458;-80
2023/10/01 02:36:46;;;;;;;13.63;6.35;;;;;;;12.98;65.39;97611.03;6216672;23;20028;-81
2023/10/01 02:39:21;;;;;;;10.80;6.47;;;;;;;13.01;65.54;97607.25;6216263;23;20048;-80
2023/10/01 02:42:09;;;;;;;13.75;6.07;;;;;;;13.06;65.31;97611.00;6216590;23;20406;-81
2023/10/01 02:44:46;;;;;;;13.68;6.65;;;;;;;13.10;64.93;97612.28;6220937;23;20039;-79
2023/10/01 02:47:18;;;;;;;12.68;5.78;;;;;;;13.11;65.06;97607.88;6242527;23;20082;-79
2023/10/01 02:49:52;;;;;;;14.93;7.05;;;;;;;13.07;65.13;97607.38;6230454;23;20039;-79
2023/10/01 02:52:22;;;;;;;10.02;6.28;;;;;;;13.01;65.41;97605.47;6241216;23;20031;-79
2023/10/01 02:54:54;;;;;;;15.07;6.70;;;;;;;12.97;65.57;97605.00;6240760;23;20024;-80
2023/10/01 02:57:26;;;;;;;13.55;6.32;;;;;;;12.93;65.51;97600.28;6240946;23;20025;-80
2023/10/01 03:02:53;;;;;;;13.82;6.82;;;;;;;12.83;66.01;97602.28;6124177;23;20082;-81
2023/10/01 03:05:28;;;;;;;11.73;6.28;;;;;;;12.80;66.17;97607.88;6185720;23;20021;-80
2023/10/01 03:08:03;;;;;;;13.10;7.00;;;;;;;12.78;66.29;97614.09;6216258;23;20095;-81
2023/10/01 03:10:32;;;;;;;12.23;6.53;;;;;;;12.74;66.29;97612.78;6215877;23;20048;-80
2023/10/01 03:13:02;;;;;;;11.98;6.85;;;;;;;12.74;66.58;97610.16;6216232;23;20099;-81
2023/10/01 03:15:29;;;;;;;12.43;6.47;;;;;;;12.74;66.60;97612.78;6216428;23;20024;-81
2023/10/01 03:18:06;;;;;;;14.48;7.10;;;;;;;12.72;67.01;97603.47;6215946;23;20025;-81
2023/10/01 03:23:26;;;;;;;11.68;7.32;;;;;;;12.65;66.57;97605.97;6215929;23;20017;-81
2023/10/01 03:25:59;;;;;;;13.32;6.18;;;;;;;12.63;66.96;97604.50;6216457;23;20100;-80
2023/10/01 03:28:33;;;;;;;11.10;5.63;;;;;;;12.61;67.03;97609.09;6215999;23;20119;-80
2023/10/01 03:31:09;;;;;;;10.82;6.13;;;;;;;12.62;66.92;97598.47;6225150;23;20044;-79
2023/10/01 03:33:39;;;;;;;11.82;6.03;;;;;;;12.65;66.83;97603.34;6247100;23;20059;-79
2023/10/01 03:36:10;;;;;;;10.98;6.32;;;;;;;12.68;66.86;97607.41;6247482;23;20034;-79
2023/10/01 03:38:43;;;;;;;10.77;6.00;;;;;;;12.68;66.73;97591.72;6247392;23;20091;-79
2023/10/01 03:41:27;;;;;;;11.45;6.53;;;;;;;12.67;67.04;97587.47;6235467;23;20036;-80
2023/10/01 03:44:08;;;;;;;14.00;6.03;;;;;;;12.67;66.63;97580.44;6221080;23;20032;-80
2023/10/01 03:46:46;;;;;;;13.73;6.50;;;;;;;12.73;66.79;97578.94;6227349;23;20104;-79
2023/10/01 03:52:04;;;;;;;11.75;5.90;;;;;;;12.67;66.40;97583.06;6212948;23;20016;-79
2023/10/01 03:57:23;;;;;;;10.93;6.22;;;;;;;12.66;66.71;97588.44;6216653;23;20417;-79
2023/10/01 04:05:31;;;;;;;12.02;6.07;;;;;;;12.61;66.78;97585.53;6175031;23;20044;-79
2023/10/01 04:08:03;;;;;;;9.60;5.82;;;;;;;12.64;66.78;97585.19;6186724;23;20024;-79
2023/10/01 04:10:32;;;;;;;15.18;6.10;;;;;;;12.66;66.84;97578.81;6173754;23;20072;-79
2023/10/01 04:13:12;;;;;;;12.98;6.25;;;;;;;12.65;66.55;97581.59;6156937;23;20029;-79
2023/10/01 04:15:47;;;;;;;12.18;6.03;;;;;;;12.60;66.60;97579.50;6148688;23;20021;-80
2023/10/01 04:18:21;;;;;;;13.77;6.53;;;;;;;12.56;66.84;97567.72;6185661;23;20060;-77
2023/10/01 04:21:17;;;;;;;11.02;6.07;;;;;;;12.57;66.58;97566.72;6185172;23;20052;-78
2023/10/01 04:23:47;;;;;;;9.93;6.07;;;;;;;12.55;66.66;97560.84;6184293;23;20025;-78
2023/10/01 04:26:17;;;;;;;11.48;5.97;;;;;;;12.50;66.79;97573.63;6201703;23;20205;-79
2023/10/01 04:28:50;;;;;;;9.20;5.70;;;;;;;12.48;67.08;97567.75;6185197;23;20344;-78
2023/10/01 04:31:22;;;;;;;13.55;6.78;;;;;;;12.48;66.98;97570.38;6185021;23;20027;-78
2023/10/01 04:33:52;;;;;;;11.98;6.47;;;;;;;12.45;66.86;97568.09;6184632;23;20025;-78
2023/10/01 04:36:20;;;;;;;12.82;6.93;;;;;;;12.42;67.03;97571.88;6186281;23;20021;-78
2023/10/01 04:38:51;;;;;;;10.30;5.45;;;;;;;12.41;67.15;97580.69;6184813;23;20021;-78
2023/10/01 04:41:22;;;;;;;13.20;6.60;;;;;;;12.42;67.12;97581.50;6184980;23;20024;-78
2023/10/01 04:43:55;;;;;;;12.77;6.28;;;;;;;12.40;67.12;97580.84;6184524;23;20231;-78
2023/10/01 04:46:27;;;;;;;14.10;5.78;;;;;;;12.39;67.33;97580.06;6185887;23;20414;-77
2023/10/01 04:48:55;;;;;;;11.70;6.50;;;;;;;12.44;67.25;97571.69;6186349;23;20045;-78
2023/10/01 04:51:24;;;;;;;10.38;5.50;;;;;;;12.46;67.11;97577.56;6184888;23;20029;-77
2023/10/01 04:54:00;;;;;;;10.85;5.88;;;;;;;12.45;67.11;97576.75;6184621;23;20024;-78
2023/10/01 04:56:27;;;;;;;10.13;5.75;;;;;;;12.47;67.26;97579.22;6185081;23;20028;-78
2023/10/01 04:58:56;;;;;;;12.68;5.65;;;;;;;12.50;67.17;97584.09;6184947;23;20017;-78
2023/10/01 05:01:24;;;;;;;9.98;5.38;;;;;;;12.54;66.93;97580.97;6184788;23;20025;-78
2023/10/01 05:03:56;;;;;;;10.27;6.22;;;;;;;12.55;66.80;97568.69;6184308;23;20102;-78
2023/10/01 05:06:27;;;;;;;13.52;5.55;;;;;;;12.55;67.19;97571.31;6185141;23;20398;-78
2023/10/01 05:08:56;;;;;;;13.07;6.50;;;;;;;12.58;66.97;97569.19;6185446;23;20120;-78
2023/10/01 05:11:29;;;;;;;13.25;6.18;;;;;;;12.61;67.00;97559.38;6205220;23;20025;-78
2023/10/01 05:13:59;;;;;;;11.63;6.10;;;;;;;12.63;66.76;97560.81;6203930;23;20021;-79
2023/10/01 05:16:27;;;;;;;11.43;5.78;;;;;;;12.63;66.58;97552.97;6186189;23;20534;-78
2023/10/01 05:19:09;;;;;;;11.88;6.07;;;;;;;12.62;66.50;97546.09;6185765;23;20025;-78
2023/10/01 05:21:41;;;;;;;;;;;;;;;12.66;66.77;97546.56;6185718;23;20362;-78
2023/10/01 05:24:10;;;;;;;9.25;5.78;;;;;;;12.65;66.35;97555.41;6185074;23;19916;-77
2023/10/01 05:26:38;;;;;;;9.57;5.75;;;;;;;12.69;66.64;97554.91;6185212;23;20021;-78
2023/10/01 05:29:07;;;;;;;10.27;5.68;;;;;;;12.76;66.43;97563.69;6184860;23;20459;-78
2023/10/01 05:31:39;;;;;;;12.48;5.85;;;;;;;12.81;66.27;97571.03;6184762;23;20087;-77
2023/10/01 05:34:11;;;;;;;9.90;5.38;;;;;;;12.87;66.33;97580.00;6184506;23;20025;-78
2023/10/01 05:36:39;;;;;;;16.63;6.05;;;;;;;12.96;65.90;97576.34;6185062;23;20075;-78
2023/10/01 05:39:11;;;;;;;11.68;6.00;;;;;;;13.03;65.74;97582.56;6184726;23;20025;-78
2023/10/01 05:41:44;;;;;;;11.02;5.85;;;;;;;13.04;65.40;97592.03;6185359;23;20028;-78
2023/10/01 05:44:15;;;;;;;11.85;5.53;;;;;;;13.05;65.52;97592.84;6185132;23;20576;-78
2023/10/01 05:46:42;;;;;;;9.57;5.38;;;;;;;13.10;65.50;97590.53;6184880;23;20024;-78
2023/10/01 05:49:12;;;;;;;10.13;6.15;;;;;;;13.14;65.32;97602.28;6184632;23;20021;-78
2023/10/01 05:51:48;;;;;;;9.98;5.50;;;;;;;13.16;65.22;97603.75;6184321;23;20060;-78
2023/10/01 05:54:18;;;;;;;13.48;6.03;;;;;;;13.19;65.06;97616.50;6184342;23;20021;-78
2023/10/01 05:56:48;;;;;;;10.25;5.57;;;;;;;13.26;64.54;97623.66;6184704;23;20028;-77
2023/10/01 05:59:20;;;;;;;10.93;5.97;;;;;;;13.27;64.34;97630.53;6184528;23;20049;-78
2023/10/01 06:01:48;;;;;;;10.80;6.53;;;;;;;13.20;64.61;97631.22;6184226;23;20029;-78
2023/10/01 06:04:18;;;;;;;11.35;5.28;;;;;;;13.19;64.77;97629.59;6184776;23;20029;-78
2023/10/01 06:06:46;;;;;;;11.10;6.47;;;;;;;13.23;64.40;97642.34;6187113;23;20025;-78
2023/10/01 06:09:15;;;;;;;13.25;6.22;;;;;;;13.28;63.84;97643.50;6186958;23;20017;-78
2023/10/01 06:11:48;;;;;;;8.85;5.80;;;;;;;13.33;63.13;97649.03;6186455;23;20029;-78
2023/10/01 06:17:05;;;;;;;9.10;5.25;;;;;;;13.43;62.59;97653.25;6186355;23;20103;-78
2023/10/01 06:19:33;;;;;;;11.10;5.72;;;;;;;13.47;62.37;97649.25;6186759;23;20052;-78
2023/10/01 06:22:22;;;;;;;11.65;6.43;;;;;;;13.53;62.36;97652.00;6186768;23;20032;-78
2023/10/01 06:24:51;;;;;;;10.32;6.43;;;;;;;13.57;62.17;97645.41;6192525;23;20031;-78
2023/10/01 06:27:19;;;;;;;9.43;5.30;;;;;;;13.63;62.33;97650.97;6185784;23;20029;-78
2023/10/01 06:29:51;;;;;;;12.88;6.57;;;;;;;13.74;62.12;97647.94;6185978;23;20028;-77
2023/10/01 06:32:19;;;;;;;12.50;6.37;;;;;;;13.83;62.33;97643.44;6187346;23;20422;-78
2023/10/01 06:34:49;;;;;;;11.38;5.70;;;;;;;13.90;62.44;97646.97;6189125;23;20414;-78
2023/10/01 06:37:19;;;;;;;11.50;5.78;;;;;;;13.96;62.89;97648.91;6199232;23;20449;-78
2023/10/01 06:39:46;;;;;;;11.80;6.05;;;;;;;14.00;62.88;97640.50;6186872;23;20021;-78
2023/10/01 06:42:23;;;;;;;9.32;5.07;;;;;;;14.15;62.94;97642.34;6185667;23;20104;-78
2023/10/01 06:44:54;;;;;;;10.50;5.50;;;;;;;14.34;62.63;97641.81;6175176;23;20103;-77
2023/10/01 06:47:23;;;;;;;10.68;5.97;;;;;;;14.54;62.34;97636.00;6185974;23;20017;-78
2023/10/01 06:50:07;;;;;;;9.55;5.38;;;;;;;14.72;62.01;97647.00;6186150;23;20021;-78
2023/10/01 06:52:41;;;;;;;13.43;5.78;;;;;;;14.93;61.54;97641.00;6185855;23;20021;-78
2023/10/01 06:55:25;;;;;;;10.95;5.20;;;;;;;15.08;61.30;97633.09;6185722;23;20017;-78
2023/10/01 06:57:54;;;;;;;10.68;5.70;;;;;;;15.27;61.20;97641.41;6186110;23;20363;-78
2023/10/01 07:00:25;;;;;;;11.57;5.80;;;;;;;15.45;60.73;97644.41;6185856;23;20032;-78
2023/10/01 07:02:53;;;;;;;12.38;5.82;;;;;;;15.64;60.51;97645.63;6185698;23;20021;-78
2023/10/01 07:05:22;;;;;;;13.73;6.28;;;;;;;15.79;60.15;97642.94;6185335;23;20044;-78
2023/10/01 07:07:50;;;;;;;10.43;6.03;;;;;;;15.96;59.67;97657.47;6185750;23;20033;-78
2023/10/01 07:10:19;;;;;;;15.75;5.80;;;;;;;16.14;59.39;97658.81;6185744;23;20079;-78
2023/10/01 07:12:58;;;;;;;10.90;6.10;;;;;;;16.26;58.78;97657.28;6187292;23;20386;-78
2023/10/01 07:15:27;;;;;;;10.27;6.25;;;;;;;16.28;58.74;97660.53;6185233;23;20025;-78
2023/10/01 07:17:57;;;;;;;14.02;6.10;;;;;;;16.34;58.60;97659.78;6185813;23;20025;-78
2023/10/01 07:20:25;;;;;;;10.23;5.53;;;;;;;16.46;58.56;97663.50;6185756;23;20024;-78
2023/10/01 07:22:54;;;;;;;10.93;5.85;;;;;;;16.59;58.11;97668.03;6185563;23;20029;-79
2023/10/01 07:25:37;;;;;;;8.57;5.27;;;;;;;16.73;57.97;97673.38;6185598;23;20025;-78
2023/10/01 07:28:06;;;;;;;12.75;5.88;;;;;;;16.86;57.62;97674.28;6185792;23;20055;-78
2023/10/01 07:30:45;;;;;;;14.20;5.90;;;;;;;17.03;57.00;97673.94;6185735;23;20017;-80
2023/10/01 07:33:17;;;;;;;13.52;5.57;;;;;;;17.35;56.36;97672.44;6185920;23;20100;-78
2023/10/01 07:35:58;;;;;;;11.40;6.32;;;;;;;17.69;55.37;97668.88;6160123;23;20039;-78
2023/10/01 07:38:28;;;;;;;10.55;6.07;;;;;;;17.98;54.74;97669.53;6201453;23;20025;-79
2023/10/01 07:40:58;;;;;;;11.38;5.00;;;;;;;18.21;54.40;97665.69;6203444;23;20027;-79
2023/10/01 07:43:26;;;;;;;12.40;5.80;;;;;;;18.40;53.78;97664.84;6195591;23;20029;-78
2023/10/01 07:46:01;;;;;;;9.98;5.18;;;;;;;18.60;53.25;97664.00;6186311;23;20071;-78
2023/10/01 07:48:29;;;;;;;9.55;5.53;;;;;;;18.86;52.79;97661.31;6186880;23;20025;-79
2023/10/01 07:50:59;;;;;;;11.38;5.40;;;;;;;19.13;52.28;97669.16;6188282;23;20350;-79
2023/10/01 07:53:32;;;;;;;11.45;6.05;;;;;;;19.40;51.30;97669.03;6187355;23;20025;-79
2023/10/01 07:56:02;;;;;;;11.18;7.03;;;;;;;19.66;50.47;97668.06;6188241;23;20060;-79
2023/10/01 08:01:36;;;;;;;12.65;6.35;;;;;;;20.95;47.42;97674.53;6186423;23;20128;-77
2023/10/01 08:04:06;;;;;;;13.73;6.40;;;;;;;22.11;45.37;97678.91;6186611;23;20021;-77
2023/10/01 08:06:41;;;;;;;12.20;6.30;;;;;;;22.77;43.61;97676.94;6199300;23;20025;-77
2023/10/01 08:09:11;;;;;;;11.60;6.00;;;;;;;22.73;43.73;97681.91;6202862;23;20025;-77
2023/10/01 08:12:05;;;;;;;10.63;6.07;;;;;;;22.48;44.10;97684.84;6198312;23;20359;-77
2023/10/01 08:14:33;;;;;;;15.75;6.47;;;;;;;22.30;44.41;97696.41;6185492;23;20028;-77
2023/10/01 08:17:03;;;;;;;15.63;6.88;;;;;;;22.30;44.05;97693.75;6185428;23;20036;-78
2023/10/01 08:19:44;;;;;;;14.80;6.93;;;;;;;22.52;44.20;97690.47;6195574;23;20079;-77
2023/10/01 08:22:22;;;;;;;14.07;6.50;;;;;;;22.80;43.41;97692.44;6198162;23;20020;-77
2023/10/01 08:24:50;;;;;;;10.60;5.95;;;;;;;23.01;43.28;97699.03;6186429;23;20021;-77
2023/10/01 08:27:31;;;;;;;13.77;6.20;;;;;;;23.32;42.35;97695.13;6185790;23;20091;-77
2023/10/01 08:32:49;;;;;;;12.15;6.18;;;;;;;23.26;42.93;97690.75;6185331;23;20025;-77
2023/10/01 08:35:23;;;;;;;13.02;6.97;;;;;;;23.34;43.21;97690.38;6185590;23;20056;-77
2023/10/01 08:37:59;;;;;;;14.27;7.13;;;;;;;23.47;42.75;97683.16;6184972;23;20036;-75
2023/10/01 08:40:27;;;;;;;12.30;6.47;;;;;;;23.65;42.64;97688.28;6185226;23;20025;-77
2023/10/01 08:42:58;;;;;;;11.52;6.28;;;;;;;23.87;42.29;97683.09;6184953;23;20055;-77
2023/10/01 08:45:37;;;;;;;13.75;7.15;;;;;;;24.05;41.17;97692.72;6191956;23;20024;-77
2023/10/01 08:48:08;;;;;;;12.82;7.18;;;;;;;24.09;41.28;97687.72;6189504;23;20025;-77
2023/10/01 08:50:40;;;;;;;13.38;7.07;;;;;;;24.21;41.25;97686.59;6186165;23;20347;-77
2023/10/01 08:53:11;;;;;;;11.60;6.20;;;;;;;24.39;40.96;97690.84;6186108;23;20021;-78
2023/10/01 08:56:04;;;;;;;11.30;6.50;;;;;;;24.58;40.79;97693.31;6185305;23;20208;-77
2023/10/01 08:58:41;;;;;;;10.70;6.13;;;;;;;24.84;40.22;97689.13;6185686;23;20056;-78
2023/10/01 09:01:12;;;;;;;12.20;6.50;;;;;;;25.15;39.93;97694.84;6186918;23;20017;-77
2023/10/01 09:03:47;;;;;;;12.95;7.25;;;;;;;25.60;38.89;97691.09;6186614;23;20021;-77
2023/10/01 09:06:27;;;;;;;12.40;6.72;;;;;;;26.22;37.57;97690.59;6185629;23;20402;-76
2023/10/01 09:09:19;;;;;;;12.77;7.15;;;;;;;26.86;36.84;97689.69;6185940;23;20336;-77
2023/10/01 09:11:50;;;;;;;8.88;5.57;;;;;;;27.21;36.53;97692.78;6185306;23;20493;-77
2023/10/01 09:14:35;;;;;;;15.23;6.43;;;;;;;27.76;36.08;97688.66;6185401;23;20466;-77
2023/10/01 09:17:24;;;;;;;11.63;6.32;;;;;;;28.43;34.50;97680.66;6185935;23;20024;-77
2023/10/01 09:19:56;;;;;;;12.27;6.47;;;;;;;28.84;33.60;97684.06;6186400;23;20090;-79
2023/10/01 09:22:40;;;;;;;9.70;6.30;;;;;;;29.14;33.41;97683.16;6186477;23;20017;-77
2023/10/01 09:25:20;;;;;;;8.98;6.32;;;;;;;29.56;32.69;97689.13;6186376;23;20075;-77
2023/10/01 09:28:03;;;;;;;11.52;6.28;;;;;;;29.99;31.51;97687.50;6186769;23;20402;-77
2023/10/01 09:30:34;;;;;;;11.27;6.72;;;;;;;30.40;31.19;97675.63;6188803;23;20021;-77
2023/10/01 09:33:05;;;;;;;10.35;6.28;;;;;;;30.63;30.70;97679.44;6185915;23;20025;-77
2023/10/01 09:35:49;;;;;;;12.40;6.70;;;;;;;30.69;30.26;97678.28;6186568;23;20463;-77
2023/10/01 09:38:19;;;;;;;11.27;5.53;;;;;;;30.79;30.40;97672.00;6185974;23;20376;-77
2023/10/01 09:40:51;;;;;;;10.38;5.80;;;;;;;30.92;30.14;97668.66;6186754;23;20032;-77
2023/10/01 09:43:19;;;;;;;9.90;5.85;;;;;;;31.10;30.06;97675.16;6186837;23;20017;-78
2023/10/01 09:45:51;;;;;;;10.30;5.93;;;;;;;31.19;28.77;97678.81;6184917;23;20097;-78
2023/10/01 09:48:30;;;;;;;8.68;5.43;;;;;;;31.11;28.56;97675.94;6186138;23;20045;-77
2023/10/01 09:51:07;;;;;;;9.77;5.47;;;;;;;31.04;28.88;97676.31;6186324;23;20027;-77
2023/10/01 09:53:44;;;;;;;8.88;4.90;;;;;;;31.06;29.28;97668.72;6185752;23;20403;-77
2023/10/01 09:56:14;;;;;;;9.75;5.05;;;;;;;31.18;28.84;97661.03;6185237;23;20497;-77
2023/10/01 09:58:46;;;;;;;7.70;4.90;;;;;;;31.30;27.78;97662.50;6186274;23;20021;-77
2023/10/01 10:01:17;;;;;;;8.30;4.88;;;;;;;31.44;27.97;97652.63;6187088;23;20096;-77
2023/10/01 10:03:49;;;;;;;11.15;5.38;;;;;;;31.52;27.59;97660.06;6185667;23;20402;-77
2023/10/01 10:06:24;;;;;;;8.65;5.93;;;;;;;31.58;27.84;97664.28;6186326;23;20025;-77
2023/10/01 10:09:04;;;;;;;10.73;5.47;;;;;;;31.56;27.44;97655.69;6187018;23;20044;-77
2023/10/01 10:11:36;;;;;;;9.35;5.18;;;;;;;31.55;28.00;97647.88;6186092;23;20047;-78
2023/10/01 10:14:39;;;;;;;9.55;5.65;;;;;;;31.63;28.58;97651.81;6186900;23;20034;-78
2023/10/01 10:17:18;;;;;;;11.98;5.65;;;;;;;31.70;28.35;97650.34;6186224;23;20028;-78
2023/10/01 10:20:15;;;;;;;8.80;5.50;;;;;;;31.72;28.45;97648.16;6185695;23;20096;-78
2023/10/01 10:23:13;;;;;;;8.07;5.43;;;;;;;32.17;27.66;97642.34;6185892;23;20068;-78
2023/10/01 10:25:41;;;;;;;9.75;5.93;;;;;;;32.52;27.18;97642.78;6185460;23;20455;-78
2023/10/01 10:28:09;;;;;;;10.88;6.00;;;;;;;32.81;26.27;97639.81;6187990;23;20358;-78
2023/10/01 10:30:41;;;;;;;10.57;5.88;;;;;;;32.96;26.36;97636.00;6186921;23;20029;-78
2023/10/01 10:33:42;;;;;;;12.27;6.38;;;;;;;33.23;25.56;97632.47;6185536;23;20104;-78
2023/10/01 10:36:53;;;;;;;9.68;5.85;;;;;;;33.48;26.12;97633.81;6185960;23;20025;-77
2023/10/01 10:40:26;;;;;;;9.18;6.13;;;;;;;33.64;26.12;97624.25;6186164;23;20406;-78
2023/10/01 10:43:22;;;;;;;9.10;5.93;;;;;;;33.64;26.44;97635.06;6175638;23;20021;-78
2023/10/01 10:45:58;;;;;;;9.38;5.75;;;;;;;33.64;25.62;97643.19;6116660;23;20029;-78
2023/10/01 10:49:02;;;;;;;11.77;5.82;;;;;;;33.70;25.11;97640.38;6185269;23;20358;-78
2023/10/01 10:51:43;;;;;;;11.10;6.53;;;;;;;33.76;25.10;97639.13;6187043;23;20358;-78
2023/10/01 10:54:16;;;;;;;8.90;5.47;;;;;;;33.72;24.99;97633.53;6186010;23;20068;-77
2023/10/01 10:56:44;;;;;;;9.70;5.75;;;;;;;33.65;25.42;97633.97;6191064;23;20029;-78
2023/10/01 10:59:15;;;;;;;10.95;6.30;;;;;;;33.68;24.86;97631.75;6190442;23;20025;-78
2023/10/01 11:01:46;;;;;;;8.35;5.78;;;;;;;33.88;25.08;97628.56;6189621;23;20025;-78
2023/10/01 11:04:16;;;;;;;10.77;6.20;;;;;;;34.29;24.22;97632.13;6189142;23;20045;-77
2023/10/01 11:06:47;;;;;;;11.15;5.90;;;;;;;34.75;23.68;97628.22;6189733;23;20028;-78
2023/10/01 11:09:25;;;;;;;12.15;5.65;;;;;;;34.62;23.61;97629.91;6189992;23;20087;-79
2023/10/01 11:12:02;;;;;;;12.68;6.03;;;;;;;34.15;24.07;97621.41;6189008;23;20525;-78
2023/10/01 11:14:31;;;;;;;9.65;5.97;;;;;;;33.96;24.50;97616.97;6189211;23;20021;-78
2023/10/01 11:16:58;;;;;;;9.55;6.35;;;;;;;34.15;24.21;97616.00;6189209;23;20025;-77
2023/10/01 11:19:28;;;;;;;10.32;5.90;;;;;;;34.23;24.48;97612.53;6188992;23;20029;-78
2023/10/01 11:21:58;;;;;;;9.35;5.93;;;;;;;34.26;24.13;97614.59;6188152;23;20016;-77
2023/10/01 11:24:32;;;;;;;9.35;5.30;;;;;;;34.28;23.63;97620.50;6188316;23;20021;-77
2023/10/01 11:27:22;;;;;;;10.40;6.72;;;;;;;34.44;24.35;97613.59;6190377;23;20048;-77
2023/10/01 11:29:59;;;;;;;10.85;5.95;;;;;;;34.46;23.80;97605.94;6199022;23;20029;-77
2023/10/01 11:36:07;;;;;;;9.18;5.60;;;;;;;34.83;24.31;97603.84;6144250;23;20025;-77
2023/10/01 11:38:39;;;;;;;9.88;5.35;;;;;;;35.19;23.47;97604.72;6198134;23;20027;-78
2023/10/01 11:41:07;;;;;;;9.40;5.53;;;;;;;35.82;22.96;97594.34;6190496;23;20478;-78
2023/10/01 11:43:42;;;;;;;8.38;5.30;;;;;;;37.00;21.43;97598.31;6189217;23;20265;-78
2023/10/01 11:46:18;;;;;;;9.05;5.57;;;;;;;38.51;20.20;97599.84;6190206;23;20049;-78
2023/10/01 11:48:57;;;;;;;10.25;6.22;;;;;;;39.82;19.09;97597.00;6189836;23;20044;-78
2023/10/01 11:51:43;;;;;;;9.73;6.07;;;;;;;40.88;17.67;97595.38;6188695;23;20096;-78
2023/10/01 11:54:13;;;;;;;8.63;5.72;;;;;;;41.78;17.15;97589.00;6188952;23;20020;-78
2023/10/01 11:56:43;;;;;;;8.20;5.20;;;;;;;42.09;16.38;97588.00;6188338;23;20443;-77
2023/10/01 11:59:18;;;;;;;9.32;6.25;;;;;;;42.52;16.11;97586.00;6191772;23;20021;-82
2023/10/01 12:01:49;;;;;;;10.50;6.78;;;;;;;42.74;15.80;97587.09;6190169;23;20352;-81
2023/10/01 12:04:43;;;;;;;8.20;5.45;;;;;;;42.39;15.73;97579.88;6194172;23;20478;-81
2023/10/01 12:07:17;;;;;;;7.53;5.18;;;;;;;41.05;17.15;97574.25;6192233;23;20481;-80
2023/10/01 12:09:49;;;;;;;8.57;5.70;;;;;;;39.51;17.90;97568.50;6191790;23;20105;-80
2023/10/01 12:12:18;;;;;;;;;;;;;;;38.24;19.18;97570.47;6191427;23;20075;-81
2023/10/01 12:14:55;;;;;;;8.40;5.28;;;;;;;36.80;20.81;97554.50;6190723;23;20350;-80
2023/10/01 12:17:26;;;;;;;9.50;5.85;;;;;;;35.57;21.67;97556.03;6189271;23;20025;-80
2023/10/01 12:19:57;;;;;;;7.78;5.28;;;;;;;34.54;22.70;97549.38;6188993;23;20017;-78
2023/10/01 12:22:24;;;;;;;9.50;5.90;;;;;;;33.71;23.91;97553.47;6188329;23;20355;-78
2023/10/01 12:24:57;;;;;;;8.95;5.68;;;;;;;32.97;25.01;97540.28;6187310;23;20025;-77